Daly City, CA (94014)

4:49 PM PDT on May 22, 2015 (GMT -0700)
Crocker Amazon | | Change Station
CLOSE
Current Station
Personal Weather Station
Location: San Francisco, CA
Elevation: 420 ft
Nearby Weather Stations

Elev 420 ft 37.71 °N, 122.44 °W | Updated 14 minutes ago

Overcast
Overcast
63.0 °F
Feels Like 63.0 °F
N
3.7
Wind Variable Wind from SE

Today
High -- | Low -- °F
--% Chance of Precip.
Yesterday
High -- | Low -- °F
Precip. -- in
5:54 AM 8:18 PM
Waxing Crescent, 25% visible
Pressure 30.04 in
Visibility 10.0 miles
Clouds Scattered Clouds 1000 ft
Mostly Cloudy 2000 ft
Overcast 2600 ft
Dew Point 55 °F
Humidity 74%
Rainfall 0.00 in
Snow Depth Not available.
UV 2 out of 12
Pollen 5.80 out of 12
Air Quality Not available.
Flu Activity Sporadic
METAR KSFO 222256Z 26013KT 10SM SCT010 BKN020 OVC026 16/11 A3003 RMK AO2 SLP170 T01610111

More Conditions Fewer Conditions

Pressure 30.04 in
Visibility 10.0 miles
Clouds Scattered Clouds 1000 ft
Mostly Cloudy 2000 ft
Overcast 2600 ft
Dew Point 55 °F
Humidity 74%
Rainfall 0.00 in
Snow Depth Not available.
UV 2 out of 12
Pollen 5.80 out of 12
Air Quality Not available.
Flu Activity Sporadic
METAR KSFO 222256Z 26013KT 10SM SCT010 BKN020 OVC026 16/11 A3003 RMK AO2 SLP170 T01610111

More Conditions Fewer Conditions

10-Day Weather Forecast

Almanac

Astronomy

May. 22, 2015 Rise Set
Actual Time
Civil Twilight
Nautical Twilight
Astronomical Twilight
Moon
Length of Visible Light
Length of Day
Tomorrow will be .
, % of the Moon is Illuminated

Today's Extremes

State Highs State Lows

Community

WunderPhotos

Upload Photos

1,823,335 photos uploaded!

WunderBlogs® & News

Nearby

Air Quality

  Air Quality AQ Index Pollutant
Not available.

Snow Depth

Station Depth Elevation

Earthquake Activity

City Distance Mag. Time & Date
Minimum magnitude displayed is 2.5.

Coastal Water Temperatures

Place Temperature

Stations

Nearby Weather Stations

Station Location Temp. Windchill Dew Point Humidity Wind Precip. Elev Updated Type